Startpagina
METAR-TAF:

METAR-TAF

Vliegvelden :

Luchthaven Wrocław-Copernicus

Wrocław, Polen

breedte: 51-06N, lengte: 016-53E, hoogte: 120 m

Actueel weer

Dit bericht is 32 minuten geleden gemaakt, om 10:30 UTC
Wind 11 kt uit het westen
Temperatuur 1°C
Vochtigheid 86%
Druk 1014 hPa
Zicht 10 km of meer
Gebroken wolken op 4300 ft

METAR: EPWR 271030Z 28011KT 9999 BKN043 01/M01 Q1014 R11/82//94

Tijdstip: 12:02 (11:02 UTC)

Verwachting

Dit bericht is 2 uur en het 32 minuten geleden gemaakt, om 08:30 UTC
Verwachting geldig van 27 om 09 UTC tot 28 om 09 UTC
Wind 12 kt uit het westen
Zicht 10 km of meer
Gebroken wolken op 3000 ft
Wijzigt naar
van 27 om 15 UTC tot 27 om 18 UTC
Wind 5 kt uit het zuidzuidwesten
Wijzigt naar
van 28 om 03 UTC tot 28 om 06 UTC
Gebroken wolken op 1300 ft

TAF: EPWR 270830Z 2709/2809 28012KT 9999 BKN030 BECMG 2715/2718 20005KT BECMG 2803/2806 BKN013

Waarnemingen en weersverwachtingen van meer dan 4000 vliegvelden (METAR en TAF).

De beschikbare stations zijn de gele en rode punten op de kaart.

Ga met uw muis naar het station om de naam te zien.

Klik dan om waarnemingen en weersverwachtingen te zien.

kaart wijzigen: klik op de groene knoppen met een zwart kruis om in te zoomen, op de groene knop met een streepje om uit te zoomen of op de groene pijlen voor aangrenzende kaarten.


METAR-TAF: